首页
METAR-TAF:

METAR-TAF

机场 :

薩圖馬雷, 罗马尼亚

纬度: 47-48N, 经度: 022-53E, 海拔: 123米

当前天气观测

该预报发布于38分钟前的07:30 UTC
风速9节,风向南转南东
温度 6°C
湿度 81%
气压 999 hPa
能见度10公里或以上
多云层高于4800英尺
小雨

METAR: LRSM 130730Z 15009KT 9999 -RA BKN048 06/03 Q0999 R01/29//95

时间: 10:08 (08:08 UTC)

预报

该预报发布于3小时和8分钟前的05:00 UTC
预报有效从13日的 06点(UTC)到 13日的 15点(UTC)
风速12节,风向南转南东
能见度10公里或以上
散云层高于4500英尺
短暂存在
从 13日的 06点(UTC)到 13日的 10点(UTC)
能見度: 5000
多云层高于1500英尺
多云层高于4500英尺
小雨, 轻雾

TAF: LRSM 130500Z 1306/1315 15012KT 9999 SCT045 TEMPO 1306/1310 5000 -RA BR BKN015 BKN045

超过4000个机场的气象观测和天气预报(METAR&TAF报告)。

可查询的气象台以黄色和红色小点在地图上表示。

将鼠标移到小点上方,可查看气象台名称。

然后点击查看天气观测和预报。

如需切换地图:点击带黑十字的绿色按钮放大地图;点击带横线的绿色按钮缩小地图;或者点击绿色箭头查看邻近地区的地图。


METAR-TAF: